sensor_id;sensor_type;location;lat;lon;timestamp;temperature;humidity
64689;DHT22;62504;46.070;14.492;2024-03-02T00:02:13;10.40;99.90
64689;DHT22;62504;46.070;14.492;2024-03-02T00:04:39;10.40;99.90
64689;DHT22;62504;46.070;14.492;2024-03-02T00:07:06;10.30;99.90
64689;DHT22;62504;46.070;14.492;2024-03-02T00:09:32;10.30;99.90
64689;DHT22;62504;46.070;14.492;2024-03-02T00:11:59;10.20;99.90
64689;DHT22;62504;46.070;14.492;2024-03-02T00:14:25;10.50;99.90
64689;DHT22;62504;46.070;14.492;2024-03-02T00:16:51;10.50;99.90
64689;DHT22;62504;46.070;14.492;2024-03-02T00:19:18;10.50;99.90
64689;DHT22;62504;46.070;14.492;2024-03-02T00:21:44;10.60;99.90
64689;DHT22;62504;46.070;14.492;2024-03-02T00:24:33;10.60;99.90
64689;DHT22;62504;46.070;14.492;2024-03-02T00:26:59;10.70;99.90
64689;DHT22;62504;46.070;14.492;2024-03-02T00:29:25;10.60;99.90
64689;DHT22;62504;46.070;14.492;2024-03-02T00:31:52;10.50;99.90
64689;DHT22;62504;46.070;14.492;2024-03-02T00:34:18;10.50;99.90
64689;DHT22;62504;46.070;14.492;2024-03-02T00:36:45;10.50;99.90
64689;DHT22;62504;46.070;14.492;2024-03-02T00:39:12;10.40;99.90
64689;DHT22;62504;46.070;14.492;2024-03-02T00:41:41;10.20;99.90
64689;DHT22;62504;46.070;14.492;2024-03-02T00:44:09;10.20;99.90
64689;DHT22;62504;46.070;14.492;2024-03-02T00:46:40;10.20;99.90
64689;DHT22;62504;46.070;14.492;2024-03-02T00:49:22;10.00;99.90
64689;DHT22;62504;46.070;14.492;2024-03-02T00:51:49;10.00;99.90
64689;DHT22;62504;46.070;14.492;2024-03-02T00:54:18;10.00;99.90
64689;DHT22;62504;46.070;14.492;2024-03-02T00:56:44;10.00;99.90
64689;DHT22;62504;46.070;14.492;2024-03-02T00:59:10;9.90;99.90
64689;DHT22;62504;46.070;14.492;2024-03-02T01:01:36;9.90;99.90
64689;DHT22;62504;46.070;14.492;2024-03-02T01:04:02;9.90;99.90
64689;DHT22;62504;46.070;14.492;2024-03-02T01:06:27;10.00;99.90
64689;DHT22;62504;46.070;14.492;2024-03-02T01:08:53;10.10;99.90
64689;DHT22;62504;46.070;14.492;2024-03-02T01:11:19;10.10;99.90
64689;DHT22;62504;46.070;14.492;2024-03-02T01:13:47;10.10;99.90
64689;DHT22;62504;46.070;14.492;2024-03-02T01:16:13;10.10;99.90
64689;DHT22;62504;46.070;14.492;2024-03-02T01:18:39;10.00;99.90
64689;DHT22;62504;46.070;14.492;2024-03-02T01:21:05;10.10;99.90
64689;DHT22;62504;46.070;14.492;2024-03-02T01:23:30;10.10;99.90
64689;DHT22;62504;46.070;14.492;2024-03-02T01:25:56;10.30;99.90
64689;DHT22;62504;46.070;14.492;2024-03-02T01:28:22;10.40;99.90
64689;DHT22;62504;46.070;14.492;2024-03-02T01:30:48;10.20;99.90
64689;DHT22;62504;46.070;14.492;2024-03-02T01:33:13;10.10;99.90
64689;DHT22;62504;46.070;14.492;2024-03-02T01:35:39;10.00;99.90
64689;DHT22;62504;46.070;14.492;2024-03-02T01:38:05;10.00;99.90
64689;DHT22;62504;46.070;14.492;2024-03-02T01:40:34;10.00;99.90
64689;DHT22;62504;46.070;14.492;2024-03-02T01:43:00;10.00;99.90
64689;DHT22;62504;46.070;14.492;2024-03-02T01:45:26;9.90;99.90
64689;DHT22;62504;46.070;14.492;2024-03-02T01:47:52;9.80;99.90
64689;DHT22;62504;46.070;14.492;2024-03-02T01:50:25;9.90;99.90
64689;DHT22;62504;46.070;14.492;2024-03-02T01:52:51;9.90;99.90
64689;DHT22;62504;46.070;14.492;2024-03-02T01:55:17;10.00;99.90
64689;DHT22;62504;46.070;14.492;2024-03-02T01:57:43;10.10;99.90
64689;DHT22;62504;46.070;14.492;2024-03-02T02:00:10;9.90;99.90
64689;DHT22;62504;46.070;14.492;2024-03-02T02:02:36;9.90;99.90
64689;DHT22;62504;46.070;14.492;2024-03-02T02:05:03;10.20;99.90
64689;DHT22;62504;46.070;14.492;2024-03-02T02:07:29;10.10;99.90
64689;DHT22;62504;46.070;14.492;2024-03-02T02:09:54;9.90;99.90
64689;DHT22;62504;46.070;14.492;2024-03-02T02:12:20;10.10;99.90
64689;DHT22;62504;46.070;14.492;2024-03-02T02:14:49;10.30;99.90
64689;DHT22;62504;46.070;14.492;2024-03-02T02:17:18;10.40;99.90
64689;DHT22;62504;46.070;14.492;2024-03-02T02:19:43;10.40;99.90
64689;DHT22;62504;46.070;14.492;2024-03-02T02:22:12;10.50;99.90
64689;DHT22;62504;46.070;14.492;2024-03-02T02:24:41;10.50;99.90
64689;DHT22;62504;46.070;14.492;2024-03-02T02:27:07;10.40;99.90
64689;DHT22;62504;46.070;14.492;2024-03-02T02:29:33;10.30;99.90
64689;DHT22;62504;46.070;14.492;2024-03-02T02:31:59;10.10;99.90
64689;DHT22;62504;46.070;14.492;2024-03-02T02:34:24;10.00;99.90
64689;DHT22;62504;46.070;14.492;2024-03-02T02:36:50;9.90;99.90
64689;DHT22;62504;46.070;14.492;2024-03-02T02:39:18;9.90;99.90
64689;DHT22;62504;46.070;14.492;2024-03-02T02:41:45;10.10;99.90
64689;DHT22;62504;46.070;14.492;2024-03-02T02:44:10;10.10;99.90
64689;DHT22;62504;46.070;14.492;2024-03-02T02:46:38;10.00;99.90
64689;DHT22;62504;46.070;14.492;2024-03-02T02:49:04;9.90;99.90
64689;DHT22;62504;46.070;14.492;2024-03-02T02:51:30;9.90;99.90
64689;DHT22;62504;46.070;14.492;2024-03-02T02:53:55;10.20;99.90
64689;DHT22;62504;46.070;14.492;2024-03-02T02:56:21;10.30;99.90
64689;DHT22;62504;46.070;14.492;2024-03-02T02:58:47;10.30;99.90
64689;DHT22;62504;46.070;14.492;2024-03-02T03:01:13;10.40;99.90
64689;DHT22;62504;46.070;14.492;2024-03-02T03:03:40;10.40;99.90
64689;DHT22;62504;46.070;14.492;2024-03-02T03:06:06;10.30;99.90
64689;DHT22;62504;46.070;14.492;2024-03-02T03:08:31;10.20;99.90
64689;DHT22;62504;46.070;14.492;2024-03-02T03:10:57;10.10;99.90
64689;DHT22;62504;46.070;14.492;2024-03-02T03:13:23;10.00;99.90
64689;DHT22;62504;46.070;14.492;2024-03-02T03:15:48;9.90;99.90
64689;DHT22;62504;46.070;14.492;2024-03-02T03:18:14;9.90;99.90
64689;DHT22;62504;46.070;14.492;2024-03-02T03:20:40;9.90;99.90
64689;DHT22;62504;46.070;14.492;2024-03-02T03:23:05;9.90;99.90
64689;DHT22;62504;46.070;14.492;2024-03-02T03:25:31;9.90;99.90
64689;DHT22;62504;46.070;14.492;2024-03-02T03:27:57;9.90;99.90
64689;DHT22;62504;46.070;14.492;2024-03-02T03:30:22;10.00;99.90
64689;DHT22;62504;46.070;14.492;2024-03-02T03:32:48;10.10;99.90
64689;DHT22;62504;46.070;14.492;2024-03-02T03:35:14;10.00;99.90
64689;DHT22;62504;46.070;14.492;2024-03-02T03:37:44;9.90;99.90
64689;DHT22;62504;46.070;14.492;2024-03-02T03:40:10;9.90;99.90
64689;DHT22;62504;46.070;14.492;2024-03-02T03:42:36;9.90;99.90
64689;DHT22;62504;46.070;14.492;2024-03-02T03:45:03;10.00;99.90
64689;DHT22;62504;46.070;14.492;2024-03-02T03:47:28;10.10;99.90
64689;DHT22;62504;46.070;14.492;2024-03-02T03:49:54;10.10;99.90
64689;DHT22;62504;46.070;14.492;2024-03-02T03:52:20;10.00;99.90
64689;DHT22;62504;46.070;14.492;2024-03-02T03:54:46;9.90;99.90
64689;DHT22;62504;46.070;14.492;2024-03-02T03:57:12;9.90;99.90
64689;DHT22;62504;46.070;14.492;2024-03-02T03:59:38;9.90;99.90
64689;DHT22;62504;46.070;14.492;2024-03-02T04:02:03;9.90;99.90
64689;DHT22;62504;46.070;14.492;2024-03-02T04:04:29;9.80;99.90
64689;DHT22;62504;46.070;14.492;2024-03-02T04:06:55;9.80;99.90
64689;DHT22;62504;46.070;14.492;2024-03-02T04:09:21;9.80;99.90
64689;DHT22;62504;46.070;14.492;2024-03-02T04:11:46;9.70;99.90
64689;DHT22;62504;46.070;14.492;2024-03-02T04:14:12;9.70;99.90
64689;DHT22;62504;46.070;14.492;2024-03-02T04:16:38;9.70;99.90
64689;DHT22;62504;46.070;14.492;2024-03-02T04:19:05;9.80;99.90
64689;DHT22;62504;46.070;14.492;2024-03-02T04:21:30;10.00;99.90
64689;DHT22;62504;46.070;14.492;2024-03-02T04:23:56;10.20;99.90
64689;DHT22;62504;46.070;14.492;2024-03-02T04:26:25;10.20;99.90
64689;DHT22;62504;46.070;14.492;2024-03-02T04:28:51;10.00;99.90
64689;DHT22;62504;46.070;14.492;2024-03-02T04:31:17;9.90;99.90
64689;DHT22;62504;46.070;14.492;2024-03-02T04:33:43;9.80;99.90
64689;DHT22;62504;46.070;14.492;2024-03-02T04:36:08;9.80;99.90
64689;DHT22;62504;46.070;14.492;2024-03-02T04:38:38;9.70;99.90
64689;DHT22;62504;46.070;14.492;2024-03-02T04:41:07;9.60;99.90
64689;DHT22;62504;46.070;14.492;2024-03-02T04:43:33;9.70;99.90
64689;DHT22;62504;46.070;14.492;2024-03-02T04:45:59;9.70;99.90
64689;DHT22;62504;46.070;14.492;2024-03-02T04:48:25;9.70;99.90
64689;DHT22;62504;46.070;14.492;2024-03-02T04:50:51;9.90;99.90
64689;DHT22;62504;46.070;14.492;2024-03-02T04:53:17;9.80;99.90
64689;DHT22;62504;46.070;14.492;2024-03-02T04:55:42;9.80;99.90
64689;DHT22;62504;46.070;14.492;2024-03-02T04:58:08;9.80;99.90
64689;DHT22;62504;46.070;14.492;2024-03-02T05:00:34;9.70;99.90
64689;DHT22;62504;46.070;14.492;2024-03-02T05:03:00;9.70;99.90
64689;DHT22;62504;46.070;14.492;2024-03-02T05:05:26;9.70;99.90
64689;DHT22;62504;46.070;14.492;2024-03-02T05:07:52;9.90;99.90
64689;DHT22;62504;46.070;14.492;2024-03-02T05:10:18;9.90;99.90
64689;DHT22;62504;46.070;14.492;2024-03-02T05:12:44;9.90;99.90
64689;DHT22;62504;46.070;14.492;2024-03-02T05:15:14;9.80;99.90
64689;DHT22;62504;46.070;14.492;2024-03-02T05:17:40;9.90;99.90
64689;DHT22;62504;46.070;14.492;2024-03-02T05:20:09;9.90;99.90
64689;DHT22;62504;46.070;14.492;2024-03-02T05:22:35;10.00;99.90
64689;DHT22;62504;46.070;14.492;2024-03-02T05:25:03;10.00;99.90
64689;DHT22;62504;46.070;14.492;2024-03-02T05:27:30;9.80;99.90
64689;DHT22;62504;46.070;14.492;2024-03-02T05:29:55;9.90;99.90
64689;DHT22;62504;46.070;14.492;2024-03-02T05:32:21;10.00;99.90
64689;DHT22;62504;46.070;14.492;2024-03-02T05:34:47;10.00;99.90
64689;DHT22;62504;46.070;14.492;2024-03-02T05:37:12;10.10;99.90
64689;DHT22;62504;46.070;14.492;2024-03-02T05:39:38;10.20;99.90
64689;DHT22;62504;46.070;14.492;2024-03-02T05:42:04;10.00;99.90
64689;DHT22;62504;46.070;14.492;2024-03-02T05:44:30;9.90;99.90
64689;DHT22;62504;46.070;14.492;2024-03-02T05:46:56;9.80;99.90
64689;DHT22;62504;46.070;14.492;2024-03-02T05:49:21;10.00;99.90
64689;DHT22;62504;46.070;14.492;2024-03-02T05:51:47;10.20;99.90
64689;DHT22;62504;46.070;14.492;2024-03-02T05:54:13;10.20;99.90
64689;DHT22;62504;46.070;14.492;2024-03-02T05:56:39;10.00;99.90
64689;DHT22;62504;46.070;14.492;2024-03-02T05:59:04;9.90;99.90
64689;DHT22;62504;46.070;14.492;2024-03-02T06:01:40;10.00;99.90
64689;DHT22;62504;46.070;14.492;2024-03-02T06:04:06;10.20;99.90
64689;DHT22;62504;46.070;14.492;2024-03-02T06:06:32;10.30;99.90
64689;DHT22;62504;46.070;14.492;2024-03-02T06:09:02;10.10;99.90
64689;DHT22;62504;46.070;14.492;2024-03-02T06:11:36;10.00;99.90
64689;DHT22;62504;46.070;14.492;2024-03-02T06:14:05;10.00;99.90
64689;DHT22;62504;46.070;14.492;2024-03-02T06:16:32;10.00;99.90
64689;DHT22;62504;46.070;14.492;2024-03-02T06:18:58;10.00;99.90
64689;DHT22;62504;46.070;14.492;2024-03-02T06:21:24;10.00;99.90
64689;DHT22;62504;46.070;14.492;2024-03-02T06:23:50;10.00;99.90
64689;DHT22;62504;46.070;14.492;2024-03-02T06:26:16;9.90;99.90
64689;DHT22;62504;46.070;14.492;2024-03-02T06:28:41;10.10;99.90
64689;DHT22;62504;46.070;14.492;2024-03-02T06:31:07;10.10;99.90
64689;DHT22;62504;46.070;14.492;2024-03-02T06:33:33;10.20;99.90
64689;DHT22;62504;46.070;14.492;2024-03-02T06:35:58;10.20;99.90
64689;DHT22;62504;46.070;14.492;2024-03-02T06:38:24;10.30;99.90
64689;DHT22;62504;46.070;14.492;2024-03-02T06:40:50;10.30;99.90
64689;DHT22;62504;46.070;14.492;2024-03-02T06:43:15;10.30;99.90
64689;DHT22;62504;46.070;14.492;2024-03-02T06:45:41;10.40;99.90
64689;DHT22;62504;46.070;14.492;2024-03-02T06:48:07;10.50;99.90
64689;DHT22;62504;46.070;14.492;2024-03-02T06:50:32;10.50;99.90
64689;DHT22;62504;46.070;14.492;2024-03-02T06:52:58;10.40;99.90
64689;DHT22;62504;46.070;14.492;2024-03-02T06:55:24;10.30;99.90
64689;DHT22;62504;46.070;14.492;2024-03-02T06:57:50;10.40;99.90
64689;DHT22;62504;46.070;14.492;2024-03-02T07:00:16;10.40;99.90
64689;DHT22;62504;46.070;14.492;2024-03-02T07:02:43;10.30;99.90
64689;DHT22;62504;46.070;14.492;2024-03-02T07:05:10;10.40;99.90
64689;DHT22;62504;46.070;14.492;2024-03-02T07:07:35;10.40;99.90
64689;DHT22;62504;46.070;14.492;2024-03-02T07:10:05;10.40;99.90
64689;DHT22;62504;46.070;14.492;2024-03-02T07:12:32;10.20;99.90
64689;DHT22;62504;46.070;14.492;2024-03-02T07:14:58;10.30;99.90
64689;DHT22;62504;46.070;14.492;2024-03-02T07:17:30;10.30;99.90
64689;DHT22;62504;46.070;14.492;2024-03-02T07:19:56;10.40;99.90
64689;DHT22;62504;46.070;14.492;2024-03-02T07:22:22;10.40;99.90
64689;DHT22;62504;46.070;14.492;2024-03-02T07:24:48;10.30;99.90
64689;DHT22;62504;46.070;14.492;2024-03-02T07:27:15;10.40;99.90
64689;DHT22;62504;46.070;14.492;2024-03-02T07:29:41;10.50;99.90
64689;DHT22;62504;46.070;14.492;2024-03-02T07:32:08;10.50;99.90
64689;DHT22;62504;46.070;14.492;2024-03-02T07:34:35;10.70;99.90
64689;DHT22;62504;46.070;14.492;2024-03-02T07:37:00;10.80;99.90
64689;DHT22;62504;46.070;14.492;2024-03-02T07:39:26;10.60;99.90
64689;DHT22;62504;46.070;14.492;2024-03-02T07:41:52;10.50;99.90
64689;DHT22;62504;46.070;14.492;2024-03-02T07:44:18;10.50;99.90
64689;DHT22;62504;46.070;14.492;2024-03-02T07:46:48;10.50;99.90
64689;DHT22;62504;46.070;14.492;2024-03-02T07:49:17;10.40;99.90
64689;DHT22;62504;46.070;14.492;2024-03-02T07:51:43;10.40;99.90
64689;DHT22;62504;46.070;14.492;2024-03-02T07:54:09;10.30;99.90
64689;DHT22;62504;46.070;14.492;2024-03-02T07:56:34;10.40;99.90
64689;DHT22;62504;46.070;14.492;2024-03-02T07:59:04;10.40;99.90
64689;DHT22;62504;46.070;14.492;2024-03-02T08:01:33;10.40;99.90
64689;DHT22;62504;46.070;14.492;2024-03-02T08:03:59;10.40;99.90
64689;DHT22;62504;46.070;14.492;2024-03-02T08:06:27;10.40;99.90
64689;DHT22;62504;46.070;14.492;2024-03-02T08:09:00;10.50;99.90
64689;DHT22;62504;46.070;14.492;2024-03-02T08:11:26;10.50;99.90
64689;DHT22;62504;46.070;14.492;2024-03-02T08:13:56;10.50;99.90
64689;DHT22;62504;46.070;14.492;2024-03-02T08:16:23;10.50;99.90
64689;DHT22;62504;46.070;14.492;2024-03-02T08:18:49;10.60;99.90
64689;DHT22;62504;46.070;14.492;2024-03-02T08:21:15;10.50;99.90
64689;DHT22;62504;46.070;14.492;2024-03-02T08:23:42;10.50;99.90
64689;DHT22;62504;46.070;14.492;2024-03-02T08:26:08;10.50;99.90
64689;DHT22;62504;46.070;14.492;2024-03-02T08:28:34;10.40;99.90
64689;DHT22;62504;46.070;14.492;2024-03-02T08:31:02;10.40;99.90
64689;DHT22;62504;46.070;14.492;2024-03-02T08:33:28;10.30;99.90
64689;DHT22;62504;46.070;14.492;2024-03-02T08:35:54;10.40;99.90
64689;DHT22;62504;46.070;14.492;2024-03-02T08:38:20;10.50;99.90
64689;DHT22;62504;46.070;14.492;2024-03-02T08:40:45;10.50;99.90
64689;DHT22;62504;46.070;14.492;2024-03-02T08:43:11;10.50;99.90
64689;DHT22;62504;46.070;14.492;2024-03-02T08:45:37;10.70;99.90
64689;DHT22;62504;46.070;14.492;2024-03-02T08:48:06;10.70;99.90
64689;DHT22;62504;46.070;14.492;2024-03-02T08:50:32;10.70;99.90
64689;DHT22;62504;46.070;14.492;2024-03-02T08:52:58;10.70;99.90
64689;DHT22;62504;46.070;14.492;2024-03-02T08:55:23;10.80;99.90
64689;DHT22;62504;46.070;14.492;2024-03-02T08:57:49;10.80;99.90
64689;DHT22;62504;46.070;14.492;2024-03-02T09:00:16;10.90;99.90
64689;DHT22;62504;46.070;14.492;2024-03-02T09:02:44;11.10;99.90
64689;DHT22;62504;46.070;14.492;2024-03-02T09:05:10;11.10;99.90
64689;DHT22;62504;46.070;14.492;2024-03-02T09:07:35;10.90;99.90
64689;DHT22;62504;46.070;14.492;2024-03-02T09:10:01;10.70;99.90
64689;DHT22;62504;46.070;14.492;2024-03-02T09:12:27;10.60;99.90
64689;DHT22;62504;46.070;14.492;2024-03-02T09:14:52;10.60;99.90
64689;DHT22;62504;46.070;14.492;2024-03-02T09:17:18;10.80;99.90
64689;DHT22;62504;46.070;14.492;2024-03-02T09:19:43;11.00;99.90
64689;DHT22;62504;46.070;14.492;2024-03-02T09:22:09;11.30;99.90
64689;DHT22;62504;46.070;14.492;2024-03-02T09:24:35;11.60;99.90
64689;DHT22;62504;46.070;14.492;2024-03-02T09:27:01;11.70;99.90
64689;DHT22;62504;46.070;14.492;2024-03-02T09:29:26;11.90;99.90
64689;DHT22;62504;46.070;14.492;2024-03-02T09:31:52;12.00;99.90
64689;DHT22;62504;46.070;14.492;2024-03-02T09:34:18;12.10;99.90
64689;DHT22;62504;46.070;14.492;2024-03-02T09:36:43;12.10;99.90
64689;DHT22;62504;46.070;14.492;2024-03-02T09:39:09;12.10;99.90
64689;DHT22;62504;46.070;14.492;2024-03-02T09:41:36;11.80;99.90
64689;DHT22;62504;46.070;14.492;2024-03-02T09:44:03;12.10;99.90
64689;DHT22;62504;46.070;14.492;2024-03-02T09:46:28;12.30;99.90
64689;DHT22;62504;46.070;14.492;2024-03-02T09:48:54;12.20;99.90
64689;DHT22;62504;46.070;14.492;2024-03-02T09:51:20;12.00;99.90
64689;DHT22;62504;46.070;14.492;2024-03-02T09:53:47;12.20;99.90
64689;DHT22;62504;46.070;14.492;2024-03-02T09:56:13;12.40;99.90
64689;DHT22;62504;46.070;14.492;2024-03-02T09:58:41;12.50;99.90
64689;DHT22;62504;46.070;14.492;2024-03-02T10:01:07;12.50;99.90
64689;DHT22;62504;46.070;14.492;2024-03-02T10:03:33;12.50;99.90
64689;DHT22;62504;46.070;14.492;2024-03-02T10:08:44;12.60;99.90
64689;DHT22;62504;46.070;14.492;2024-03-02T10:11:09;12.40;99.90
64689;DHT22;62504;46.070;14.492;2024-03-02T10:13:36;12.50;99.90
64689;DHT22;62504;46.070;14.492;2024-03-02T10:16:12;12.40;99.90
64689;DHT22;62504;46.070;14.492;2024-03-02T10:18:37;12.60;99.90
64689;DHT22;62504;46.070;14.492;2024-03-02T10:21:29;12.80;99.90
64689;DHT22;62504;46.070;14.492;2024-03-02T10:24:07;13.00;99.90
64689;DHT22;62504;46.070;14.492;2024-03-02T10:26:32;13.50;99.90
64689;DHT22;62504;46.070;14.492;2024-03-02T10:28:58;13.90;99.90
64689;DHT22;62504;46.070;14.492;2024-03-02T10:31:25;14.00;99.90
64689;DHT22;62504;46.070;14.492;2024-03-02T10:33:54;14.10;99.90
64689;DHT22;62504;46.070;14.492;2024-03-02T10:36:20;14.30;99.90
64689;DHT22;62504;46.070;14.492;2024-03-02T10:38:47;14.60;99.90
64689;DHT22;62504;46.070;14.492;2024-03-02T10:41:23;14.60;99.90
64689;DHT22;62504;46.070;14.492;2024-03-02T10:43:51;14.40;99.90
64689;DHT22;62504;46.070;14.492;2024-03-02T10:46:19;14.20;99.90
64689;DHT22;62504;46.070;14.492;2024-03-02T10:48:46;14.20;99.90
64689;DHT22;62504;46.070;14.492;2024-03-02T10:51:12;14.00;99.90
64689;DHT22;62504;46.070;14.492;2024-03-02T10:53:37;14.10;99.90
64689;DHT22;62504;46.070;14.492;2024-03-02T10:56:07;14.10;99.90
64689;DHT22;62504;46.070;14.492;2024-03-02T10:58:33;14.40;99.90
64689;DHT22;62504;46.070;14.492;2024-03-02T11:01:02;14.50;99.90
64689;DHT22;62504;46.070;14.492;2024-03-02T11:03:31;14.50;99.90
64689;DHT22;62504;46.070;14.492;2024-03-02T11:05:59;14.40;99.90
64689;DHT22;62504;46.070;14.492;2024-03-02T11:08:27;14.30;99.90
64689;DHT22;62504;46.070;14.492;2024-03-02T11:11:06;14.20;99.90
64689;DHT22;62504;46.070;14.492;2024-03-02T11:13:34;14.40;99.90
64689;DHT22;62504;46.070;14.492;2024-03-02T11:16:17;14.40;99.90
64689;DHT22;62504;46.070;14.492;2024-03-02T11:18:44;14.30;99.90
64689;DHT22;62504;46.070;14.492;2024-03-02T11:21:11;14.30;99.90
64689;DHT22;62504;46.070;14.492;2024-03-02T11:23:37;14.20;99.90
64689;DHT22;62504;46.070;14.492;2024-03-02T11:26:21;14.20;99.90
64689;DHT22;62504;46.070;14.492;2024-03-02T11:28:48;14.10;99.90
64689;DHT22;62504;46.070;14.492;2024-03-02T11:31:14;14.10;99.90
64689;DHT22;62504;46.070;14.492;2024-03-02T11:33:40;14.10;99.90
64689;DHT22;62504;46.070;14.492;2024-03-02T11:36:09;14.10;99.90
64689;DHT22;62504;46.070;14.492;2024-03-02T11:38:35;14.10;99.90
64689;DHT22;62504;46.070;14.492;2024-03-02T11:41:08;14.20;99.90
64689;DHT22;62504;46.070;14.492;2024-03-02T11:43:37;14.20;99.90
64689;DHT22;62504;46.070;14.492;2024-03-02T11:46:05;14.10;99.90
64689;DHT22;62504;46.070;14.492;2024-03-02T11:48:35;14.10;99.90
64689;DHT22;62504;46.070;14.492;2024-03-02T11:51:02;14.00;99.90
64689;DHT22;62504;46.070;14.492;2024-03-02T11:53:28;14.10;99.90
64689;DHT22;62504;46.070;14.492;2024-03-02T11:56:01;14.20;99.90
64689;DHT22;62504;46.070;14.492;2024-03-02T11:58:27;14.10;99.90
64689;DHT22;62504;46.070;14.492;2024-03-02T12:00:54;13.80;99.90
64689;DHT22;62504;46.070;14.492;2024-03-02T12:03:22;13.80;99.90
64689;DHT22;62504;46.070;14.492;2024-03-02T12:05:52;13.70;99.90
64689;DHT22;62504;46.070;14.492;2024-03-02T12:08:19;13.80;99.90
64689;DHT22;62504;46.070;14.492;2024-03-02T12:10:57;13.70;99.90
64689;DHT22;62504;46.070;14.492;2024-03-02T12:13:23;13.90;99.90
64689;DHT22;62504;46.070;14.492;2024-03-02T12:15:53;14.00;99.90
64689;DHT22;62504;46.070;14.492;2024-03-02T12:18:20;13.90;99.90
64689;DHT22;62504;46.070;14.492;2024-03-02T12:20:46;13.90;99.90
64689;DHT22;62504;46.070;14.492;2024-03-02T12:23:14;13.80;99.90
64689;DHT22;62504;46.070;14.492;2024-03-02T12:25:39;13.60;99.90
64689;DHT22;62504;46.070;14.492;2024-03-02T12:28:05;13.70;99.90
64689;DHT22;62504;46.070;14.492;2024-03-02T12:30:35;13.70;99.90
64689;DHT22;62504;46.070;14.492;2024-03-02T12:33:01;13.70;99.90
64689;DHT22;62504;46.070;14.492;2024-03-02T12:35:26;13.70;99.90
64689;DHT22;62504;46.070;14.492;2024-03-02T12:37:53;13.70;99.90
64689;DHT22;62504;46.070;14.492;2024-03-02T12:40:20;13.70;99.90
64689;DHT22;62504;46.070;14.492;2024-03-02T12:42:48;13.70;99.90
64689;DHT22;62504;46.070;14.492;2024-03-02T12:45:14;13.70;99.90
64689;DHT22;62504;46.070;14.492;2024-03-02T12:47:41;13.80;99.90
64689;DHT22;62504;46.070;14.492;2024-03-02T12:50:07;13.80;99.90
64689;DHT22;62504;46.070;14.492;2024-03-02T12:52:34;13.70;99.90
64689;DHT22;62504;46.070;14.492;2024-03-02T12:55:01;13.60;99.90
64689;DHT22;62504;46.070;14.492;2024-03-02T12:57:29;13.50;99.90
64689;DHT22;62504;46.070;14.492;2024-03-02T13:02:35;13.50;99.90
64689;DHT22;62504;46.070;14.492;2024-03-02T13:05:02;13.50;99.90
64689;DHT22;62504;46.070;14.492;2024-03-02T13:07:28;13.50;99.90
64689;DHT22;62504;46.070;14.492;2024-03-02T13:09:55;13.50;99.90
64689;DHT22;62504;46.070;14.492;2024-03-02T13:12:22;13.50;99.90
64689;DHT22;62504;46.070;14.492;2024-03-02T13:14:52;13.70;99.90
64689;DHT22;62504;46.070;14.492;2024-03-02T13:17:19;13.90;99.90
64689;DHT22;62504;46.070;14.492;2024-03-02T13:19:57;14.00;99.90
64689;DHT22;62504;46.070;14.492;2024-03-02T13:22:24;14.00;99.90
64689;DHT22;62504;46.070;14.492;2024-03-02T13:24:51;14.10;99.90
64689;DHT22;62504;46.070;14.492;2024-03-02T13:27:18;14.00;99.90
64689;DHT22;62504;46.070;14.492;2024-03-02T13:29:47;14.10;99.90
64689;DHT22;62504;46.070;14.492;2024-03-02T13:32:16;14.30;99.90
64689;DHT22;62504;46.070;14.492;2024-03-02T13:34:43;14.30;99.90
64689;DHT22;62504;46.070;14.492;2024-03-02T13:37:09;14.30;99.90
64689;DHT22;62504;46.070;14.492;2024-03-02T13:39:35;14.30;99.90
64689;DHT22;62504;46.070;14.492;2024-03-02T13:42:09;14.10;99.90
64689;DHT22;62504;46.070;14.492;2024-03-02T13:44:36;14.20;99.90
64689;DHT22;62504;46.070;14.492;2024-03-02T13:47:03;14.20;99.90
64689;DHT22;62504;46.070;14.492;2024-03-02T13:49:29;14.10;99.90
64689;DHT22;62504;46.070;14.492;2024-03-02T13:52:06;14.10;99.90
64689;DHT22;62504;46.070;14.492;2024-03-02T13:54:43;14.10;99.90
64689;DHT22;62504;46.070;14.492;2024-03-02T13:57:10;14.10;99.90
64689;DHT22;62504;46.070;14.492;2024-03-02T13:59:36;14.00;99.90
64689;DHT22;62504;46.070;14.492;2024-03-02T14:02:03;14.00;99.90
64689;DHT22;62504;46.070;14.492;2024-03-02T14:04:32;13.90;99.90
64689;DHT22;62504;46.070;14.492;2024-03-02T14:06:59;13.80;99.90
64689;DHT22;62504;46.070;14.492;2024-03-02T14:09:25;13.70;99.90
64689;DHT22;62504;46.070;14.492;2024-03-02T14:11:51;13.60;99.90
64689;DHT22;62504;46.070;14.492;2024-03-02T14:14:17;13.60;99.90
64689;DHT22;62504;46.070;14.492;2024-03-02T14:16:43;13.70;99.90
64689;DHT22;62504;46.070;14.492;2024-03-02T14:19:10;13.80;99.90
64689;DHT22;62504;46.070;14.492;2024-03-02T14:21:40;13.80;99.90
64689;DHT22;62504;46.070;14.492;2024-03-02T14:24:05;13.80;99.90
64689;DHT22;62504;46.070;14.492;2024-03-02T14:26:38;13.60;99.90
64689;DHT22;62504;46.070;14.492;2024-03-02T14:29:04;13.70;99.90
64689;DHT22;62504;46.070;14.492;2024-03-02T14:31:30;13.60;99.90
64689;DHT22;62504;46.070;14.492;2024-03-02T14:33:58;13.50;99.90
64689;DHT22;62504;46.070;14.492;2024-03-02T14:36:25;13.30;99.90
64689;DHT22;62504;46.070;14.492;2024-03-02T14:38:53;13.30;99.90
64689;DHT22;62504;46.070;14.492;2024-03-02T14:41:18;13.30;99.90
64689;DHT22;62504;46.070;14.492;2024-03-02T14:43:44;13.40;99.90
64689;DHT22;62504;46.070;14.492;2024-03-02T14:46:10;13.30;99.90
64689;DHT22;62504;46.070;14.492;2024-03-02T14:48:36;13.30;99.90
64689;DHT22;62504;46.070;14.492;2024-03-02T14:51:03;13.30;99.90
64689;DHT22;62504;46.070;14.492;2024-03-02T14:53:28;13.20;99.90
64689;DHT22;62504;46.070;14.492;2024-03-02T14:55:54;13.20;99.90
64689;DHT22;62504;46.070;14.492;2024-03-02T14:58:20;13.40;99.90
64689;DHT22;62504;46.070;14.492;2024-03-02T15:00:46;13.30;99.90
64689;DHT22;62504;46.070;14.492;2024-03-02T15:03:12;13.30;99.90
64689;DHT22;62504;46.070;14.492;2024-03-02T15:05:38;13.40;99.90
64689;DHT22;62504;46.070;14.492;2024-03-02T15:08:04;13.30;99.90
64689;DHT22;62504;46.070;14.492;2024-03-02T15:10:33;13.30;99.90
64689;DHT22;62504;46.070;14.492;2024-03-02T15:12:59;13.50;99.90
64689;DHT22;62504;46.070;14.492;2024-03-02T15:15:25;13.40;99.90
64689;DHT22;62504;46.070;14.492;2024-03-02T15:17:51;13.30;99.90
64689;DHT22;62504;46.070;14.492;2024-03-02T15:20:17;13.30;99.90
64689;DHT22;62504;46.070;14.492;2024-03-02T15:22:43;13.20;99.90